Time;durP1;ratioP1;P1;durP2;ratioP2;P2;SDS_P1;SDS_P2;PMS_P1;PMS_P2;Temp;Humidity;BMP_temperature;BMP_pressure;BME280_temperature;BME280_humidity;BME280_pressure;Samples;Min_cycle;Max_cycle;Signal;HPM_P1;HPM_P2
2022/03/03 00:00:08;;;;;;;45.35;28.33;;;;;;;11.99;67.08;100466.03;5052419;28;20060;-87
2022/03/03 00:02:34;;;;;;;44.22;30.83;;;;;;;12.02;66.84;100469.25;5051643;28;20502;-87
2022/03/03 00:04:59;;;;;;;48.20;29.92;;;;;;;12.04;66.55;100463.91;5051348;28;20036;-87
2022/03/03 00:07:25;;;;;;;58.28;31.85;;;;;;;12.11;66.53;100459.88;5052756;28;20025;-87
2022/03/03 00:09:51;;;;;;;48.63;29.70;;;;;;;12.11;66.68;100473.03;5052567;28;20024;-88
2022/03/03 00:12:16;;;;;;;46.42;29.50;;;;;;;12.18;66.68;100466.34;5052667;28;20044;-88
2022/03/03 00:14:41;;;;;;;48.20;30.15;;;;;;;12.18;66.92;100458.44;5051921;28;20027;-87
2022/03/03 00:17:07;;;;;;;44.17;28.35;;;;;;;12.22;67.10;100453.78;5052290;28;20021;-87
2022/03/03 00:19:33;;;;;;;47.40;29.50;;;;;;;12.18;66.72;100462.88;5052681;28;20031;-88
2022/03/03 00:21:58;;;;;;;51.92;30.05;;;;;;;12.18;66.66;100454.97;5052402;28;20454;-87
2022/03/03 00:24:24;;;;;;;54.72;30.60;;;;;;;12.12;66.55;100456.28;5052654;28;20017;-87
2022/03/03 00:26:49;;;;;;;50.42;30.88;;;;;;;12.29;66.34;100455.03;5052513;28;20041;-87
2022/03/03 00:29:15;;;;;;;47.40;29.85;;;;;;;12.27;66.73;100449.03;5052208;28;20033;-87
2022/03/03 00:31:40;;;;;;;48.53;29.75;;;;;;;12.33;66.54;100447.75;5051904;28;20064;-87
2022/03/03 00:34:05;;;;;;;56.60;31.52;;;;;;;12.28;66.36;100454.19;5052185;28;20025;-88
2022/03/03 00:36:31;;;;;;;51.85;31.10;;;;;;;12.17;66.53;100448.06;5052247;28;20029;-87
2022/03/03 00:38:56;;;;;;;53.55;32.35;;;;;;;12.22;66.59;100441.50;5052403;28;20037;-87
2022/03/03 00:41:22;;;;;;;45.97;29.80;;;;;;;12.25;66.88;100443.06;5052280;28;20112;-87
2022/03/03 00:43:47;;;;;;;44.33;28.70;;;;;;;12.32;67.03;100430.25;5052107;28;20033;-87
2022/03/03 00:46:13;;;;;;;50.28;31.15;;;;;;;12.34;66.29;100430.97;5051428;28;20036;-87
2022/03/03 00:48:38;;;;;;;52.00;32.17;;;;;;;12.28;66.97;100437.53;5051914;28;20035;-87
2022/03/03 00:51:06;;;;;;;53.15;31.88;;;;;;;12.28;67.14;100429.66;5052721;28;20032;-88
2022/03/03 00:53:34;;;;;;;52.58;31.35;;;;;;;12.29;67.10;100432.16;5055203;28;20028;-88
2022/03/03 00:56:00;;;;;;;46.13;30.95;;;;;;;12.26;67.14;100424.53;5067026;28;20021;-88
2022/03/03 00:58:25;;;;;;;54.15;33.67;;;;;;;12.28;67.30;100421.75;5071332;28;20036;-87
2022/03/03 01:00:51;;;;;;;50.60;33.15;;;;;;;12.46;66.83;100423.00;5065902;28;20033;-88
2022/03/03 01:03:16;;;;;;;50.88;31.90;;;;;;;12.40;67.12;100417.34;5063485;28;20029;-88
2022/03/03 01:05:41;;;;;;;49.50;32.58;;;;;;;12.39;67.14;100413.06;5057178;28;20021;-87
2022/03/03 01:08:10;;;;;;;52.35;32.50;;;;;;;12.35;67.57;100414.25;5060901;28;20055;-86
2022/03/03 01:10:39;;;;;;;59.13;35.95;;;;;;;12.25;67.46;100420.19;5066115;28;20029;-87
2022/03/03 01:13:06;;;;;;;51.08;30.73;;;;;;;12.42;67.04;100410.19;5058428;28;20036;-87
2022/03/03 01:15:32;;;;;;;53.53;34.33;;;;;;;12.42;67.04;100407.53;5054198;28;20040;-87
2022/03/03 01:17:58;;;;;;;53.25;33.65;;;;;;;12.55;67.01;100397.75;5054476;28;20545;-87
2022/03/03 01:20:23;;;;;;;50.03;31.20;;;;;;;12.54;67.00;100398.72;5052661;28;20059;-88
2022/03/03 01:22:48;;;;;;;59.35;32.78;;;;;;;12.46;67.33;100387.91;5053099;28;20100;-87
2022/03/03 01:25:14;;;;;;;53.80;33.75;;;;;;;12.48;67.24;100383.41;5052875;28;20174;-88
2022/03/03 01:27:39;;;;;;;50.83;33.70;;;;;;;12.56;67.34;100385.44;5052742;28;20036;-87
2022/03/03 01:30:08;;;;;;;52.05;33.70;;;;;;;12.64;67.04;100373.34;5052851;28;20037;-88
2022/03/03 01:32:34;;;;;;;50.67;34.03;;;;;;;12.76;66.47;100378.66;5052312;28;20103;-87
2022/03/03 01:35:00;;;;;;;56.42;33.95;;;;;;;12.75;66.62;100372.53;5052270;28;20044;-87
2022/03/03 01:37:25;;;;;;;56.63;35.30;;;;;;;12.65;66.45;100368.94;5052038;28;20033;-87
2022/03/03 01:39:51;;;;;;;56.33;33.58;;;;;;;12.75;66.51;100361.16;5051597;28;20087;-88
2022/03/03 01:42:18;;;;;;;54.67;34.45;;;;;;;12.76;66.60;100366.31;5052117;28;20414;-88
2022/03/03 01:44:45;;;;;;;50.42;34.55;;;;;;;12.70;66.83;100362.34;5050481;28;20071;-88
2022/03/03 01:47:25;;;;;;;61.22;34.58;;;;;;;12.71;66.37;100355.28;5051568;28;20025;-88
2022/03/03 01:49:53;;;;;;;59.40;35.88;;;;;;;12.74;66.29;100355.06;5048973;28;20029;-87
2022/03/03 01:52:19;;;;;;;61.63;36.17;;;;;;;12.81;66.25;100352.75;5051214;28;20065;-87
2022/03/03 01:54:45;;;;;;;58.45;36.90;;;;;;;12.82;66.43;100349.19;5051368;28;20120;-88
2022/03/03 01:57:11;;;;;;;57.80;35.80;;;;;;;12.84;66.33;100342.00;5051507;28;20438;-88
2022/03/03 01:59:37;;;;;;;54.55;33.92;;;;;;;12.65;66.67;100332.88;5051198;28;20021;-88
2022/03/03 02:02:05;;;;;;;58.05;37.53;;;;;;;12.56;67.09;100332.75;5051533;28;20025;-87
2022/03/03 02:04:31;;;;;;;57.53;34.95;;;;;;;12.45;67.72;100336.22;5050738;28;20032;-88
2022/03/03 02:06:57;;;;;;;58.17;35.03;;;;;;;12.54;67.29;100329.41;5051132;28;20021;-87
2022/03/03 02:09:22;;;;;;;58.88;36.50;;;;;;;12.54;67.61;100337.31;5051183;28;20078;-87
2022/03/03 02:11:48;;;;;;;64.72;39.10;;;;;;;12.23;68.51;100340.50;5054787;28;20029;-87
2022/03/03 02:14:14;;;;;;;64.18;38.78;;;;;;;12.37;68.10;100351.78;5053540;28;20029;-87
2022/03/03 02:16:39;;;;;;;63.20;40.88;;;;;;;12.28;68.40;100350.66;5054761;28;20025;-88
2022/03/03 02:19:06;;;;;;;66.00;41.25;;;;;;;12.27;68.58;100339.31;5045323;28;20480;-88
2022/03/03 02:21:32;;;;;;;76.57;41.60;;;;;;;12.33;68.52;100351.16;5054957;28;20037;-87
2022/03/03 02:23:57;;;;;;;63.40;39.65;;;;;;;12.43;67.96;100349.50;5052903;28;20079;-87
2022/03/03 02:26:24;;;;;;;61.88;39.60;;;;;;;12.56;67.79;100346.78;5054468;28;20029;-87
2022/03/03 02:28:51;;;;;;;74.13;40.17;;;;;;;12.55;67.79;100345.09;5054423;28;20116;-87
2022/03/03 02:31:18;;;;;;;65.82;40.30;;;;;;;12.55;68.02;100345.09;5054488;28;20083;-87
2022/03/03 02:33:43;;;;;;;67.60;39.85;;;;;;;12.52;67.67;100342.72;5054488;28;20063;-87
2022/03/03 02:36:21;;;;;;;70.25;40.30;;;;;;;12.63;67.44;100334.78;5054776;28;20025;-88
2022/03/03 02:38:48;;;;;;;70.20;39.42;;;;;;;12.58;67.49;100330.84;5053759;28;20409;-88
2022/03/03 02:41:14;;;;;;;64.28;40.67;;;;;;;12.53;68.05;100328.56;5052973;28;20047;-87
2022/03/03 02:43:40;;;;;;;65.45;39.72;;;;;;;12.54;68.13;100325.00;5054363;28;20029;-88
2022/03/03 02:46:06;;;;;;;65.15;40.95;;;;;;;12.54;67.93;100324.13;5053176;28;20490;-88
2022/03/03 02:48:31;;;;;;;62.97;40.85;;;;;;;12.55;67.76;100325.81;5054408;28;20021;-88
2022/03/03 02:50:57;;;;;;;65.50;40.05;;;;;;;12.58;68.02;100336.97;5053155;28;20041;-87
2022/03/03 02:53:22;;;;;;;69.03;41.95;;;;;;;12.49;68.17;100321.88;5052352;28;20201;-88
2022/03/03 02:55:48;;;;;;;64.07;40.97;;;;;;;12.55;68.04;100321.38;5053939;28;20021;-87
2022/03/03 02:58:13;;;;;;;67.18;41.58;;;;;;;12.56;68.15;100325.72;5053911;28;20116;-88
2022/03/03 03:00:42;;;;;;;57.97;37.65;;;;;;;12.66;68.08;100323.19;5068949;28;20525;-87
2022/03/03 03:03:09;;;;;;;60.85;38.75;;;;;;;12.66;67.88;100320.56;5053987;28;20049;-87
2022/03/03 03:05:36;;;;;;;66.68;40.95;;;;;;;12.67;68.00;100319.59;5054029;28;20075;-88
2022/03/03 03:08:02;;;;;;;63.13;39.72;;;;;;;12.69;67.95;100312.41;5053872;28;20098;-87
2022/03/03 03:10:27;;;;;;;60.38;39.38;;;;;;;12.68;68.02;100311.56;5053694;28;20052;-87
2022/03/03 03:12:53;;;;;;;73.35;42.88;;;;;;;12.64;68.39;100310.13;5052650;28;20471;-87
2022/03/03 03:15:18;;;;;;;62.53;42.50;;;;;;;12.72;67.80;100311.31;5042431;28;20443;-87
2022/03/03 03:17:44;;;;;;;64.97;39.75;;;;;;;12.69;68.27;100310.59;5033647;28;20104;-87
2022/03/03 03:20:10;;;;;;;67.55;40.03;;;;;;;12.77;67.78;100309.19;5033809;28;20064;-88
2022/03/03 03:22:36;;;;;;;58.80;37.15;;;;;;;12.79;67.75;100302.81;5033549;28;20053;-87
2022/03/03 03:25:03;;;;;;;65.10;40.53;;;;;;;12.95;67.41;100291.91;5033652;28;20064;-88
2022/03/03 03:27:28;;;;;;;59.03;38.08;;;;;;;13.08;67.25;100292.59;5032049;28;20029;-87
2022/03/03 03:29:53;;;;;;;66.30;43.08;;;;;;;13.01;67.32;100293.22;5034556;28;20056;-87
2022/03/03 03:32:19;;;;;;;60.75;38.35;;;;;;;13.05;67.24;100290.22;5033387;28;20379;-87
2022/03/03 03:34:44;;;;;;;64.30;39.85;;;;;;;13.11;67.36;100291.50;5033299;28;20462;-87
2022/03/03 03:37:10;;;;;;;58.90;39.20;;;;;;;13.07;67.07;100280.41;5033399;28;20448;-87
2022/03/03 03:39:35;;;;;;;60.72;39.58;;;;;;;13.10;67.15;100274.84;5033545;28;20120;-88
2022/03/03 03:42:00;;;;;;;60.58;39.13;;;;;;;13.17;67.16;100274.34;5033244;28;20009;-87
2022/03/03 03:44:26;;;;;;;66.15;41.17;;;;;;;13.12;67.08;100280.00;5039347;28;20067;-87
2022/03/03 03:46:51;;;;;;;65.65;39.05;;;;;;;13.15;66.87;100279.78;5052890;28;20036;-87
2022/03/03 03:49:17;;;;;;;66.80;40.83;;;;;;;13.14;67.01;100274.63;5052840;28;20029;-87
2022/03/03 03:51:42;;;;;;;61.40;39.55;;;;;;;13.18;66.97;100282.16;5052549;28;20506;-86
2022/03/03 03:54:07;;;;;;;63.90;40.50;;;;;;;13.14;67.14;100278.09;5052890;28;20033;-88
2022/03/03 03:56:33;;;;;;;70.30;39.85;;;;;;;13.08;66.97;100282.06;5052705;28;20075;-88
2022/03/03 03:58:59;;;;;;;64.00;41.30;;;;;;;13.17;67.13;100274.34;5050765;28;20080;-89
2022/03/03 04:01:26;;;;;;;65.95;40.33;;;;;;;12.86;68.09;100272.41;5052707;28;20056;-88
2022/03/03 04:03:52;;;;;;;67.35;40.53;;;;;;;13.04;67.65;100275.34;5052411;28;20071;-87
2022/03/03 04:06:18;;;;;;;60.00;39.38;;;;;;;13.12;67.38;100269.47;5046610;28;20476;-87
2022/03/03 04:08:43;;;;;;;65.80;40.53;;;;;;;13.17;67.21;100266.44;5031102;28;20041;-88
2022/03/03 04:11:08;;;;;;;63.65;41.90;;;;;;;13.19;66.97;100264.53;5031228;28;20072;-87
2022/03/03 04:13:34;;;;;;;67.70;39.65;;;;;;;13.18;67.12;100254.97;5032680;28;20021;-88
2022/03/03 04:15:59;;;;;;;65.38;41.53;;;;;;;13.08;67.59;100249.59;5032240;28;20468;-88
2022/03/03 04:18:24;;;;;;;68.20;40.80;;;;;;;13.16;67.50;100244.53;5032286;28;20489;-89
2022/03/03 04:20:50;;;;;;;61.38;36.90;;;;;;;12.77;68.75;100236.22;5033538;28;20464;-86
2022/03/03 04:23:17;;;;;;;58.80;37.67;;;;;;;12.87;68.81;100228.44;5032617;28;20021;-88
2022/03/03 04:25:42;;;;;;;66.15;39.95;;;;;;;12.88;68.28;100230.94;5032970;28;20032;-88
2022/03/03 04:28:08;;;;;;;68.63;42.47;;;;;;;12.67;68.79;100230.84;5032436;28;20068;-88
2022/03/03 04:30:34;;;;;;;60.55;38.42;;;;;;;12.74;68.75;100231.22;5032121;28;20025;-87
2022/03/03 04:32:59;;;;;;;66.65;40.33;;;;;;;12.44;69.68;100229.22;5030462;28;20083;-88
2022/03/03 04:35:24;;;;;;;65.30;40.95;;;;;;;12.72;68.88;100224.38;5046243;28;20025;-88
2022/03/03 04:37:50;;;;;;;66.20;40.13;;;;;;;12.96;68.13;100230.34;5052245;28;20074;-88
2022/03/03 04:40:15;;;;;;;68.35;42.35;;;;;;;12.30;69.87;100223.25;5052085;28;20033;-88
2022/03/03 04:42:41;;;;;;;67.60;42.72;;;;;;;12.35;69.92;100214.16;5046565;28;20120;-88
2022/03/03 04:45:07;;;;;;;71.93;43.85;;;;;;;12.51;69.36;100222.50;5032216;28;20021;-87
2022/03/03 04:47:32;;;;;;;71.15;43.78;;;;;;;12.34;69.40;100221.19;5030952;28;20029;-87
2022/03/03 04:49:57;;;;;;;66.93;42.92;;;;;;;12.41;69.79;100213.66;5032063;28;20379;-86
2022/03/03 04:52:23;;;;;;;74.30;43.28;;;;;;;12.34;70.09;100212.47;5032273;28;20032;-89
2022/03/03 04:54:49;;;;;;;70.00;42.67;;;;;;;12.38;69.87;100208.63;5037329;28;20101;-88
2022/03/03 04:57:15;;;;;;;76.75;42.83;;;;;;;12.38;69.88;100212.13;5051562;28;20093;-88
2022/03/03 04:59:41;;;;;;;70.05;41.65;;;;;;;12.45;69.84;100213.28;5067334;28;20024;-87
2022/03/03 05:02:06;;;;;;;67.95;41.80;;;;;;;12.36;70.11;100215.81;5062677;28;20302;-88
2022/03/03 05:04:31;;;;;;;64.57;40.83;;;;;;;12.38;70.25;100220.03;5050279;28;20048;-88
2022/03/03 05:06:57;;;;;;;65.55;42.13;;;;;;;12.12;71.10;100226.47;5048242;28;20025;-87
2022/03/03 05:09:22;;;;;;;69.97;41.53;;;;;;;12.12;71.04;100224.66;5047699;28;20081;-88
2022/03/03 05:11:47;;;;;;;74.47;42.78;;;;;;;11.99;71.56;100210.78;5045093;28;20025;-88
2022/03/03 05:14:13;;;;;;;69.22;41.08;;;;;;;11.99;71.54;100208.16;5035719;28;20033;-87
2022/03/03 05:16:38;;;;;;;60.42;36.60;;;;;;;12.08;71.31;100213.56;5033586;28;20033;-87
2022/03/03 05:19:04;;;;;;;61.10;37.28;;;;;;;12.35;70.57;100209.72;5034072;28;20104;-88
2022/03/03 05:21:31;;;;;;;67.60;37.65;;;;;;;12.30;70.69;100212.72;5033453;28;20403;-87
2022/03/03 05:23:57;;;;;;;61.15;38.92;;;;;;;12.46;70.19;100209.72;5033086;28;20029;-87
2022/03/03 05:26:23;;;;;;;63.10;38.88;;;;;;;12.48;70.10;100212.25;5032749;28;20025;-88
2022/03/03 05:28:48;;;;;;;58.85;35.90;;;;;;;12.35;70.12;100219.41;5044434;28;20021;-87
2022/03/03 05:31:13;;;;;;;60.25;35.42;;;;;;;12.43;70.23;100217.00;5052928;28;20118;-88
2022/03/03 05:33:40;;;;;;;60.20;36.47;;;;;;;12.18;71.15;100216.28;5052220;28;20100;-87
2022/03/03 05:36:07;;;;;;;61.70;36.90;;;;;;;12.08;71.38;100224.09;5048273;28;20044;-86
2022/03/03 05:38:34;;;;;;;62.47;38.53;;;;;;;12.10;71.22;100218.69;5050036;28;20036;-87
2022/03/03 05:41:01;;;;;;;61.65;38.80;;;;;;;12.29;70.92;100210.19;5051715;28;20021;-87
2022/03/03 05:43:27;;;;;;;62.38;37.35;;;;;;;12.23;70.77;100216.78;5050220;28;20024;-87
2022/03/03 05:45:54;;;;;;;70.72;41.58;;;;;;;12.42;70.52;100210.06;5054416;28;20391;-87
2022/03/03 05:48:21;;;;;;;67.70;41.83;;;;;;;12.84;69.13;100205.81;5055434;28;20048;-87
2022/03/03 05:50:48;;;;;;;71.47;42.55;;;;;;;12.78;69.07;100205.47;5055262;28;20067;-88
2022/03/03 05:53:14;;;;;;;66.72;42.20;;;;;;;12.88;68.16;100215.13;5054624;28;20067;-87
2022/03/03 05:55:54;;;;;;;75.28;44.55;;;;;;;12.39;69.81;100210.31;5061655;28;20025;-86
2022/03/03 05:58:23;;;;;;;72.43;41.60;;;;;;;12.55;69.84;100215.22;5071810;28;20024;-86
2022/03/03 06:00:52;;;;;;;75.13;43.55;;;;;;;12.42;69.63;100213.56;5072933;28;20031;-86
2022/03/03 06:03:19;;;;;;;73.03;42.03;;;;;;;12.82;68.81;100220.06;5072180;28;20085;-86
2022/03/03 06:05:50;;;;;;;70.10;43.55;;;;;;;12.84;68.74;100220.78;5074987;28;20033;-88
2022/03/03 06:08:23;;;;;;;72.20;42.55;;;;;;;12.84;68.51;100224.25;5075470;28;20095;-88
2022/03/03 06:10:52;;;;;;;71.53;41.33;;;;;;;12.73;68.84;100229.53;5072750;28;20040;-88
2022/03/03 06:13:21;;;;;;;66.47;41.67;;;;;;;12.75;69.02;100222.34;5075073;28;20025;-88
2022/03/03 06:15:47;;;;;;;66.35;40.47;;;;;;;12.83;68.52;100219.09;5072792;28;20017;-87
2022/03/03 06:18:13;;;;;;;69.05;41.15;;;;;;;12.83;68.87;100227.00;5074010;28;20029;-87
2022/03/03 06:20:43;;;;;;;66.88;42.38;;;;;;;12.83;68.54;100219.09;5074604;28;20283;-87
2022/03/03 06:23:08;;;;;;;73.57;43.78;;;;;;;12.83;69.11;100221.75;5066909;28;20025;-88
2022/03/03 06:25:34;;;;;;;75.32;44.00;;;;;;;12.80;68.99;100224.63;5068310;28;20025;-87
2022/03/03 06:28:00;;;;;;;72.68;43.28;;;;;;;12.80;69.06;100219.38;5068981;28;20072;-88
2022/03/03 06:30:26;;;;;;;77.32;43.78;;;;;;;12.87;68.76;100225.78;5068157;28;20025;-89
2022/03/03 06:32:51;;;;;;;73.65;44.95;;;;;;;12.81;68.56;100210.50;5067774;28;20036;-88
2022/03/03 06:35:17;;;;;;;72.13;43.55;;;;;;;12.60;69.51;100213.88;5057216;28;20033;-88
2022/03/03 06:37:42;;;;;;;71.63;41.78;;;;;;;12.75;68.53;100210.97;5055291;28;20437;-88
2022/03/03 06:40:08;;;;;;;64.45;42.47;;;;;;;12.68;69.25;100210.66;5055827;28;20104;-89
2022/03/03 06:42:34;;;;;;;70.57;43.75;;;;;;;12.74;68.95;100211.94;5055565;28;20115;-89
2022/03/03 06:44:59;;;;;;;72.00;45.20;;;;;;;12.69;69.21;100209.66;5055464;28;20096;-89
2022/03/03 06:47:25;;;;;;;68.32;42.05;;;;;;;12.76;69.24;100215.31;5055481;28;20029;-89
2022/03/03 06:49:50;;;;;;;72.28;40.92;;;;;;;12.69;68.97;100210.50;5070818;28;20081;-90
2022/03/03 06:52:17;;;;;;;73.38;42.70;;;;;;;12.82;68.67;100217.44;5054285;28;20032;-89
2022/03/03 06:54:51;;;;;;;68.22;41.50;;;;;;;12.89;68.44;100215.97;5054104;28;20537;-89
2022/03/03 06:57:20;;;;;;;66.43;41.17;;;;;;;12.84;68.56;100210.25;5054804;28;20035;-89
2022/03/03 06:59:46;;;;;;;60.28;39.33;;;;;;;12.94;68.57;100218.25;5054798;28;20037;-89
2022/03/03 07:02:11;;;;;;;70.88;42.85;;;;;;;12.70;69.13;100214.81;5054634;28;20399;-88
2022/03/03 07:04:37;;;;;;;79.60;43.88;;;;;;;12.83;69.05;100216.47;5054759;28;20033;-88
2022/03/03 07:07:03;;;;;;;68.05;40.92;;;;;;;12.59;69.55;100214.84;5055145;28;20048;-88
2022/03/03 07:09:30;;;;;;;64.40;41.63;;;;;;;12.64;69.69;100217.94;5055052;28;20025;-89
2022/03/03 07:11:58;;;;;;;64.53;40.17;;;;;;;12.83;69.03;100219.94;5054854;28;20025;-89
2022/03/03 07:14:23;;;;;;;69.68;42.90;;;;;;;12.64;69.45;100215.31;5054136;28;20090;-89
2022/03/03 07:17:04;;;;;;;65.47;41.03;;;;;;;12.64;70.33;100215.31;5054476;28;20455;-88
2022/03/03 07:19:38;;;;;;;66.07;39.20;;;;;;;13.06;68.52;100219.88;5053435;28;20411;-88
2022/03/03 07:22:34;;;;;;;65.32;39.30;;;;;;;13.05;69.01;100218.19;5055235;28;20032;-88
2022/03/03 07:25:09;;;;;;;62.45;38.38;;;;;;;13.15;68.47;100226.19;5047518;28;20029;-88
2022/03/03 07:27:40;;;;;;;67.13;40.10;;;;;;;12.98;69.17;100228.41;5053435;28;20028;-89
2022/03/03 07:30:08;;;;;;;60.50;38.90;;;;;;;13.13;68.56;100236.03;5047517;28;20526;-89
2022/03/03 07:32:37;;;;;;;74.07;41.75;;;;;;;13.20;68.60;100231.94;5033558;28;20052;-89
2022/03/03 07:35:12;;;;;;;70.22;39.63;;;;;;;12.64;70.14;100231.13;5037734;28;20045;-89
2022/03/03 07:37:52;;;;;;;71.07;40.67;;;;;;;12.87;69.75;100228.44;5051261;28;20029;-88
2022/03/03 07:40:18;;;;;;;68.95;40.85;;;;;;;12.95;69.46;100228.66;5052805;28;20025;-88
2022/03/03 07:42:45;;;;;;;71.63;41.42;;;;;;;12.87;69.37;100229.28;5051264;28;20528;-89
2022/03/03 07:45:11;;;;;;;64.47;39.22;;;;;;;13.16;68.79;100235.78;5052584;28;20498;-88
2022/03/03 07:47:38;;;;;;;69.22;40.08;;;;;;;13.08;68.88;100231.16;5052251;28;20475;-89
2022/03/03 07:50:06;;;;;;;75.00;41.08;;;;;;;13.08;68.82;100237.25;5051547;28;20025;-89
2022/03/03 07:52:31;;;;;;;66.65;39.75;;;;;;;13.15;69.08;100232.31;5050793;28;20039;-89
2022/03/03 07:54:57;;;;;;;72.15;40.45;;;;;;;13.09;69.35;100223.13;5052165;28;20021;-89
2022/03/03 07:57:25;;;;;;;72.93;40.95;;;;;;;12.98;69.69;100223.13;5053197;28;20029;-89
2022/03/03 08:00:10;;;;;;;64.65;37.72;;;;;;;13.15;69.31;100219.16;5051922;28;20029;-89
2022/03/03 08:02:38;;;;;;;64.43;38.45;;;;;;;13.01;69.38;100229.94;5051284;28;20033;-90
2022/03/03 08:05:05;;;;;;;69.65;39.15;;;;;;;13.28;68.76;100224.25;5050285;28;20017;-89
2022/03/03 08:07:39;;;;;;;76.95;38.97;;;;;;;13.20;69.40;100231.94;5050986;28;20020;-89
2022/03/03 08:10:06;;;;;;;65.20;39.03;;;;;;;13.02;70.19;100229.00;5052234;28;20024;-89
2022/03/03 08:12:33;;;;;;;69.15;39.33;;;;;;;12.96;70.59;100232.97;5051961;28;20405;-89
2022/03/03 08:14:58;;;;;;;67.00;37.92;;;;;;;13.19;70.18;100224.97;5052788;28;20025;-89
2022/03/03 08:17:25;;;;;;;64.65;37.63;;;;;;;13.13;70.28;100234.25;5052901;28;20055;-89
2022/03/03 08:19:54;;;;;;;63.42;36.47;;;;;;;13.13;70.48;100230.75;5052631;28;20025;-89
2022/03/03 08:22:21;;;;;;;68.13;37.78;;;;;;;13.43;69.31;100228.28;5052644;28;20024;-90
2022/03/03 08:24:47;;;;;;;71.05;38.75;;;;;;;13.51;69.19;100224.16;5052370;28;20380;-89
2022/03/03 08:27:13;;;;;;;67.90;38.22;;;;;;;13.39;69.60;100220.72;5043942;28;20044;-89
2022/03/03 08:29:40;;;;;;;70.40;37.70;;;;;;;13.37;70.02;100215.59;5047408;28;20013;-89
2022/03/03 08:32:10;;;;;;;74.30;39.42;;;;;;;13.23;70.00;100208.81;5043725;28;20057;-88
2022/03/03 08:35:10;;;;;;;75.03;39.28;;;;;;;13.42;70.02;100213.41;5036815;28;20025;-89
2022/03/03 08:37:38;;;;;;;72.68;40.75;;;;;;;13.53;69.59;100214.34;5041376;28;20047;-87
2022/03/03 08:40:10;;;;;;;77.68;42.78;;;;;;;13.59;69.03;100213.81;5045678;28;20445;-89
2022/03/03 08:42:38;;;;;;;70.88;41.20;;;;;;;13.44;69.82;100208.84;5039158;28;20033;-88
2022/03/03 08:45:06;;;;;;;76.28;39.90;;;;;;;13.32;70.18;100209.03;5040185;28;20040;-89
2022/03/03 08:47:32;;;;;;;70.22;38.85;;;;;;;13.53;69.86;100201.16;5046193;28;20029;-89
2022/03/03 08:50:01;;;;;;;70.70;40.55;;;;;;;13.60;69.42;100203.13;5041285;28;20510;-90
2022/03/03 08:52:28;;;;;;;68.55;41.03;;;;;;;13.57;69.72;100197.28;5041344;28;20483;-89
2022/03/03 08:54:54;;;;;;;68.25;38.55;;;;;;;13.54;69.60;100203.63;5040416;28;20026;-88
2022/03/03 08:57:20;;;;;;;69.13;38.38;;;;;;;13.55;69.93;100199.22;5045274;28;20403;-88
2022/03/03 08:59:46;;;;;;;71.55;40.70;;;;;;;13.65;69.75;100208.03;5049795;28;20079;-86
2022/03/03 09:02:16;;;;;;;69.18;36.28;;;;;;;13.42;70.72;100210.78;5043666;28;20036;-88
2022/03/03 09:04:43;;;;;;;64.78;35.63;;;;;;;13.73;69.84;100205.59;5045397;28;20148;-88
2022/03/03 09:07:08;;;;;;;60.40;34.92;;;;;;;13.55;70.56;100212.41;5047133;28;20025;-87
2022/03/03 09:09:34;;;;;;;59.92;34.85;;;;;;;13.64;70.52;100211.63;5062833;28;20031;-89
2022/03/03 09:12:01;;;;;;;53.95;33.33;;;;;;;13.58;70.67;100206.88;5058134;28;20024;-88
2022/03/03 09:14:27;;;;;;;55.42;33.33;;;;;;;13.48;70.92;100210.25;5052901;28;20110;-88
2022/03/03 09:16:52;;;;;;;51.58;31.13;;;;;;;13.97;69.46;100209.75;5052870;28;20025;-89
2022/03/03 09:19:18;;;;;;;55.58;33.22;;;;;;;13.74;69.64;100209.88;5054126;28;20116;-89
2022/03/03 09:21:44;;;;;;;57.50;34.28;;;;;;;13.85;69.71;100212.44;5042478;28;20110;-89
2022/03/03 09:24:09;;;;;;;59.60;33.45;;;;;;;13.89;69.57;100213.84;5050119;28;20025;-89
2022/03/03 09:26:35;;;;;;;60.83;34.80;;;;;;;13.81;69.48;100216.31;5043143;28;20033;-88
2022/03/03 09:29:00;;;;;;;57.95;36.05;;;;;;;13.69;70.37;100218.19;5044573;28;20116;-87
2022/03/03 09:31:26;;;;;;;54.90;32.88;;;;;;;13.76;70.01;100218.50;5051511;28;20070;-88
2022/03/03 09:33:51;;;;;;;66.93;36.85;;;;;;;13.65;70.45;100215.94;5048771;28;20036;-87
2022/03/03 09:36:18;;;;;;;68.20;35.97;;;;;;;13.74;70.21;100215.16;5046109;28;20052;-87
2022/03/03 09:38:43;;;;;;;61.05;36.25;;;;;;;13.84;69.94;100210.78;5053399;28;20083;-86
2022/03/03 09:41:09;;;;;;;60.10;35.72;;;;;;;13.57;70.94;100213.94;5055425;28;20111;-87
2022/03/03 09:43:34;;;;;;;61.88;35.53;;;;;;;13.70;70.67;100219.00;5055320;28;20021;-87
2022/03/03 09:46:00;;;;;;;56.92;33.63;;;;;;;13.65;71.01;100221.22;5051997;28;20049;-87
2022/03/03 09:48:25;;;;;;;59.83;33.75;;;;;;;13.63;70.86;100223.16;5037793;28;20245;-87
2022/03/03 09:50:51;;;;;;;53.72;32.92;;;;;;;13.75;70.54;100222.13;5042493;28;20043;-87
2022/03/03 09:53:17;;;;;;;56.83;34.08;;;;;;;13.93;69.91;100221.53;5046022;28;20083;-88
2022/03/03 09:55:45;;;;;;;58.53;33.63;;;;;;;13.97;70.00;100226.41;5054830;28;20021;-87
2022/03/03 09:58:11;;;;;;;56.45;33.20;;;;;;;13.98;70.48;100216.69;5054897;28;20021;-88
2022/03/03 10:00:40;;;;;;;54.00;33.53;;;;;;;14.13;69.58;100215.38;5054995;28;20040;-88
2022/03/03 10:03:09;;;;;;;48.80;30.63;;;;;;;14.29;69.38;100218.34;5054914;28;20017;-87
2022/03/03 10:05:48;;;;;;;55.10;30.50;;;;;;;14.54;68.33;100208.31;5054959;28;20106;-88
2022/03/03 10:08:15;;;;;;;52.80;31.25;;;;;;;14.63;68.55;100215.47;5054617;28;20383;-87
2022/03/03 10:10:43;;;;;;;52.50;30.15;;;;;;;14.94;67.94;100209.25;5054722;28;20036;-88
2022/03/03 10:13:10;;;;;;;50.10;30.20;;;;;;;15.06;67.66;100208.16;5054665;28;20110;-88
2022/03/03 10:15:36;;;;;;;48.10;28.83;;;;;;;14.94;67.88;100194.22;5054700;28;20106;-88
2022/03/03 10:18:13;;;;;;;42.90;27.90;;;;;;;14.82;68.29;100201.44;5054786;28;20112;-88
2022/03/03 10:20:44;;;;;;;41.65;28.08;;;;;;;15.03;67.87;100211.91;5054778;28;20036;-88
2022/03/03 10:23:10;;;;;;;45.33;27.05;;;;;;;14.78;67.76;100200.03;5054325;28;20032;-88
2022/03/03 10:25:38;;;;;;;43.72;26.90;;;;;;;14.53;68.85;100195.22;5054540;28;20029;-88
2022/03/03 10:28:29;;;;;;;42.13;26.92;;;;;;;14.81;68.17;100199.78;5055008;28;20063;-87
2022/03/03 10:31:05;;;;;;;44.88;26.70;;;;;;;14.96;67.58;100196.72;5053585;28;20028;-88
2022/03/03 10:33:32;;;;;;;44.53;26.95;;;;;;;14.67;68.16;100193.09;5054722;28;20421;-88
2022/03/03 10:36:08;;;;;;;44.95;26.70;;;;;;;14.59;68.47;100190.28;5054568;28;20098;-88
2022/03/03 10:38:44;;;;;;;38.60;26.00;;;;;;;15.05;67.66;100185.34;5034873;28;20040;-87
2022/03/03 10:41:31;;;;;;;41.85;24.90;;;;;;;15.34;67.11;100185.31;5034259;28;20079;-88
2022/03/03 10:44:00;;;;;;;38.75;24.50;;;;;;;15.21;67.24;100184.78;5034378;28;20487;-87
2022/03/03 10:46:25;;;;;;;40.67;25.10;;;;;;;15.32;66.98;100187.25;5034378;28;20088;-88
2022/03/03 10:48:51;;;;;;;35.58;21.88;;;;;;;15.24;67.36;100184.50;5033969;28;20422;-88
2022/03/03 10:51:17;;;;;;;33.03;20.90;;;;;;;15.52;67.20;100195.19;5036551;28;20044;-88
2022/03/03 10:53:43;;;;;;;30.05;18.73;;;;;;;15.57;67.04;100195.59;5054103;28;20025;-88
2022/03/03 10:56:14;;;;;;;30.70;18.90;;;;;;;15.62;66.50;100194.22;5054171;28;20475;-88
2022/03/03 10:58:52;;;;;;;25.15;16.40;;;;;;;15.48;66.74;100191.97;5054176;28;20033;-88
2022/03/03 11:01:23;;;;;;;27.20;17.08;;;;;;;15.60;66.21;100196.16;5053801;28;20103;-88
2022/03/03 11:03:49;;;;;;;27.17;16.02;;;;;;;15.46;66.28;100194.78;5053861;28;20060;-88
2022/03/03 11:06:20;;;;;;;20.70;13.32;;;;;;;15.45;66.61;100203.69;5053593;28;20046;-88
2022/03/03 11:08:47;;;;;;;19.25;12.85;;;;;;;15.27;66.88;100200.09;5053761;28;20017;-88